createdAt,value
2019-03-08T00:01:48.360Z,99443.46
2019-03-08T00:04:15.875Z,99441.91
2019-03-08T00:06:43.795Z,99445.96
2019-03-08T00:09:11.935Z,99441.09
2019-03-08T00:11:39.974Z,99448.72
2019-03-08T00:14:07.682Z,99447.61
2019-03-08T00:16:35.491Z,99454.70
2019-03-08T00:19:03.645Z,99462.61
2019-03-08T00:21:31.140Z,99460.10
2019-03-08T00:23:59.622Z,99467.30
2019-03-08T00:26:28.251Z,99465.14
2019-03-08T00:28:56.390Z,99458.27
2019-03-08T00:31:24.007Z,99464.32
2019-03-08T00:33:51.654Z,99471.73
2019-03-08T00:36:19.759Z,99474.41
2019-03-08T00:38:47.171Z,99481.25
2019-03-08T00:41:14.564Z,99484.58
2019-03-08T00:43:41.889Z,99485.79
2019-03-08T00:46:09.850Z,99486.08
2019-03-08T00:48:37.473Z,99490.77
2019-03-08T00:51:05.139Z,99483.89
2019-03-08T00:53:32.694Z,99487.57
2019-03-08T00:56:00.622Z,99481.20
2019-03-08T00:58:28.668Z,99476.65
2019-03-08T01:00:57.088Z,99474.40
2019-03-08T01:03:24.950Z,99473.33
2019-03-08T01:05:52.763Z,99481.88
2019-03-08T01:08:21.054Z,99485.79
2019-03-08T01:10:50.018Z,99488.38
2019-03-08T01:13:18.195Z,99484.04
2019-03-08T01:15:45.746Z,99488.95
2019-03-08T01:18:14.034Z,99483.75
2019-03-08T01:20:42.433Z,99483.02
2019-03-08T01:23:10.198Z,99484.33
2019-03-08T01:25:37.890Z,99487.30
2019-03-08T01:28:11.249Z,99486.52
2019-03-08T01:33:10.002Z,99487.62
2019-03-08T01:35:37.956Z,99499.84
2019-03-08T01:38:05.593Z,99492.00
2019-03-08T01:40:33.117Z,99501.80
2019-03-08T01:43:00.776Z,99501.62
2019-03-08T01:45:28.591Z,99506.17
2019-03-08T01:47:56.390Z,99503.52
2019-03-08T01:50:25.593Z,99505.20
2019-03-08T01:52:53.336Z,99509.11
2019-03-08T01:55:20.833Z,99510.36
2019-03-08T01:57:48.692Z,99497.65
2019-03-08T02:00:17.572Z,99500.98
2019-03-08T02:02:45.447Z,99508.28
2019-03-08T02:05:13.418Z,99501.88
2019-03-08T02:07:41.225Z,99507.39
2019-03-08T02:10:11.138Z,99493.50
2019-03-08T02:12:38.850Z,99502.09
2019-03-08T02:15:08.242Z,99489.67
2019-03-08T02:17:36.310Z,99502.16
2019-03-08T02:20:05.424Z,99498.62
2019-03-08T02:22:33.490Z,99496.14
2019-03-08T02:25:01.390Z,99506.34
2019-03-08T02:27:29.105Z,99496.86
2019-03-08T02:29:57.256Z,99504.16
2019-03-08T02:32:25.103Z,99495.29
2019-03-08T02:34:52.544Z,99491.27
2019-03-08T02:37:20.431Z,99510.32
2019-03-08T02:39:47.616Z,99505.06
2019-03-08T02:42:16.029Z,99507.48
2019-03-08T02:44:43.776Z,99510.43
2019-03-08T02:47:11.229Z,99503.22
2019-03-08T02:49:39.341Z,99509.88
2019-03-08T02:52:07.378Z,99511.00
2019-03-08T02:54:35.805Z,99516.48
2019-03-08T02:57:03.829Z,99510.34
2019-03-08T02:59:31.548Z,99511.92
2019-03-08T03:01:59.207Z,99524.91
2019-03-08T03:04:26.595Z,99522.02
2019-03-08T03:06:54.654Z,99516.61
2019-03-08T03:09:22.667Z,99518.66
2019-03-08T03:11:50.685Z,99529.08
2019-03-08T03:14:18.437Z,99531.33
2019-03-08T03:16:45.726Z,99516.23
2019-03-08T03:19:13.454Z,99526.48
2019-03-08T03:21:41.608Z,99526.13
2019-03-08T03:24:09.121Z,99533.58
2019-03-08T03:26:36.981Z,99534.72
2019-03-08T03:29:04.790Z,99549.09
2019-03-08T03:31:32.212Z,99539.13
2019-03-08T03:33:59.816Z,99536.74
2019-03-08T03:36:27.716Z,99539.55
2019-03-08T03:38:55.764Z,99554.83
2019-03-08T03:41:23.435Z,99555.69
2019-03-08T03:43:51.408Z,99555.33
2019-03-08T03:46:19.279Z,99544.32
2019-03-08T03:48:46.565Z,99557.75
2019-03-08T03:51:14.523Z,99555.77
2019-03-08T03:53:42.191Z,99564.72
2019-03-08T03:56:09.637Z,99556.06
2019-03-08T03:58:37.584Z,99556.81
2019-03-08T04:01:21.797Z,99557.39
2019-03-08T04:03:49.561Z,99565.45
2019-03-08T04:06:17.624Z,99578.73
2019-03-08T04:08:45.767Z,99576.86
2019-03-08T04:11:13.577Z,99581.06
2019-03-08T04:13:41.124Z,99601.50
2019-03-08T04:16:08.416Z,99605.28
2019-03-08T04:18:36.330Z,99607.92
2019-03-08T04:21:04.019Z,99619.16
2019-03-08T04:23:31.693Z,99625.01
2019-03-08T04:25:59.653Z,99633.03
2019-03-08T04:28:27.384Z,99644.73
2019-03-08T04:30:55.314Z,99638.47
2019-03-08T04:33:22.886Z,99639.77
2019-03-08T04:35:50.312Z,99649.89
2019-03-08T04:38:18.415Z,99642.69
2019-03-08T04:40:45.700Z,99649.17
2019-03-08T04:43:13.279Z,99655.32
2019-03-08T04:45:40.952Z,99654.62
2019-03-08T04:48:08.638Z,99646.00
2019-03-08T04:50:35.806Z,99662.78
2019-03-08T04:53:03.919Z,99655.69
2019-03-08T04:55:31.888Z,99654.86
2019-03-08T04:58:00.270Z,99666.37
2019-03-08T05:00:28.117Z,99656.31
2019-03-08T05:02:55.883Z,99658.50
2019-03-08T05:05:23.555Z,99659.81
2019-03-08T05:07:51.763Z,99663.31
2019-03-08T05:10:20.520Z,99660.47
2019-03-08T05:12:48.026Z,99669.50
2019-03-08T05:15:15.540Z,99670.08
2019-03-08T05:17:43.671Z,99674.41
2019-03-08T05:20:11.764Z,99682.20
2019-03-08T05:22:39.319Z,99681.37
2019-03-08T05:25:07.383Z,99677.94
2019-03-08T05:27:35.428Z,99675.33
2019-03-08T05:30:04.057Z,99677.65
2019-03-08T05:32:31.760Z,99677.11
2019-03-08T05:34:59.798Z,99691.05
2019-03-08T05:40:03.517Z,99682.91
2019-03-08T05:42:31.129Z,99686.30
2019-03-08T05:44:58.598Z,99682.51
2019-03-08T05:47:26.395Z,99684.25
2019-03-08T05:49:54.022Z,99696.73
2019-03-08T05:52:21.657Z,99701.43
2019-03-08T05:54:50.034Z,99703.13
2019-03-08T05:57:17.858Z,99710.39
2019-03-08T05:59:45.582Z,99712.36
2019-03-08T06:02:13.322Z,99721.61
2019-03-08T06:04:41.051Z,99733.31
2019-03-08T06:07:08.580Z,99741.11
2019-03-08T06:09:36.440Z,99743.76
2019-03-08T06:12:04.187Z,99755.88
2019-03-08T06:14:31.882Z,99766.68
2019-03-08T06:16:59.518Z,99775.43
2019-03-08T06:19:27.893Z,99781.16
2019-03-08T06:21:55.719Z,99782.89
2019-03-08T06:24:23.282Z,99804.97
2019-03-08T06:26:50.916Z,99797.38
2019-03-08T06:29:19.371Z,99806.91
2019-03-08T06:31:46.962Z,99806.12
2019-03-08T06:34:14.728Z,99806.20
2019-03-08T06:36:42.537Z,99815.31
2019-03-08T06:39:10.716Z,99810.20
2019-03-08T06:41:38.483Z,99819.45
2019-03-08T06:44:05.910Z,99810.33
2019-03-08T06:46:34.228Z,99827.62
2019-03-08T06:49:02.940Z,99824.84
2019-03-08T06:51:30.254Z,99838.63
2019-03-08T06:53:57.623Z,99835.08
2019-03-08T06:56:26.131Z,99848.63
2019-03-08T06:59:00.248Z,99846.39
2019-03-08T07:01:32.949Z,99837.19
2019-03-08T07:04:00.526Z,99845.48
2019-03-08T07:06:28.196Z,99843.92
2019-03-08T07:08:55.886Z,99857.49
2019-03-08T07:11:24.322Z,99855.47
2019-03-08T07:13:52.597Z,99869.04
2019-03-08T07:16:20.530Z,99879.12
2019-03-08T07:18:48.526Z,99888.24
2019-03-08T07:21:32.502Z,99895.41
2019-03-08T07:24:11.458Z,99892.49
2019-03-08T07:26:57.724Z,99893.73
2019-03-08T07:29:45.695Z,99911.77
2019-03-08T07:32:35.991Z,99916.14
2019-03-08T07:35:33.054Z,99929.69
2019-03-08T07:38:29.341Z,99937.28
2019-03-08T07:41:16.345Z,99937.36
2019-03-08T07:43:59.152Z,99946.45
2019-03-08T07:46:51.488Z,99955.58
2019-03-08T07:49:44.724Z,99960.03
2019-03-08T07:52:23.918Z,99977.64
2019-03-08T07:55:16.813Z,99958.09
2019-03-08T07:57:51.820Z,99965.16
2019-03-08T08:00:37.976Z,99959.25
2019-03-08T08:03:28.231Z,99976.18
2019-03-08T08:06:11.004Z,99975.51
2019-03-08T08:08:52.761Z,99982.62
2019-03-08T08:11:32.112Z,99975.25
2019-03-08T08:14:10.984Z,99976.94
2019-03-08T08:16:57.032Z,99983.69
2019-03-08T08:19:47.393Z,99984.72
2019-03-08T08:22:52.617Z,100003.77
2019-03-08T08:25:36.297Z,100012.79
2019-03-08T08:28:16.942Z,100002.38
2019-03-08T08:30:58.902Z,100022.09
2019-03-08T08:33:43.464Z,100012.05
2019-03-08T08:36:29.344Z,100026.83
2019-03-08T08:39:13.493Z,100029.12
2019-03-08T08:41:50.617Z,100036.48
2019-03-08T08:44:36.349Z,100039.89
2019-03-08T08:47:15.608Z,100048.16
2019-03-08T08:49:54.625Z,100046.88
2019-03-08T08:52:38.624Z,100029.53
2019-03-08T08:55:24.802Z,100055.58
2019-03-08T08:58:24.743Z,100062.54
2019-03-08T09:01:20.821Z,100060.94
2019-03-08T09:04:11.285Z,100061.32
2019-03-08T09:06:57.968Z,100057.63
2019-03-08T09:09:38.444Z,100068.78
2019-03-08T09:12:22.192Z,100074.70
2019-03-08T09:15:05.057Z,100085.47
2019-03-08T09:18:10.915Z,100094.57
2019-03-08T09:20:57.858Z,100099.76
2019-03-08T09:23:44.040Z,100103.94
2019-03-08T09:26:25.014Z,100109.92
2019-03-08T09:28:59.922Z,100098.25
2019-03-08T09:31:43.298Z,100103.08
2019-03-08T09:34:34.014Z,100122.14
2019-03-08T09:37:21.061Z,100125.94
2019-03-08T09:40:13.871Z,100119.48
2019-03-08T09:43:03.968Z,100131.45
2019-03-08T09:45:41.128Z,100137.05
2019-03-08T09:48:15.783Z,100138.11
2019-03-08T09:51:05.873Z,100153.83
2019-03-08T09:53:40.364Z,100154.57
2019-03-08T09:56:28.549Z,100158.56
2019-03-08T09:59:27.386Z,100167.52
2019-03-08T10:02:02.122Z,100178.90
2019-03-08T10:04:48.295Z,100191.95
2019-03-08T10:07:27.627Z,100194.33
2019-03-08T10:10:14.099Z,100189.52
2019-03-08T10:13:02.504Z,100195.11
2019-03-08T10:15:32.508Z,100203.73
2019-03-08T10:18:16.793Z,100212.02
2019-03-08T10:21:04.681Z,100215.27
2019-03-08T10:23:50.880Z,100222.62
2019-03-08T10:26:34.820Z,100225.00
2019-03-08T10:29:09.333Z,100228.46
2019-03-08T10:32:05.452Z,100233.63
2019-03-08T10:34:40.055Z,100233.42
2019-03-08T10:37:27.612Z,100241.34
2019-03-08T10:40:08.455Z,100244.83
2019-03-08T10:43:11.219Z,100242.33
2019-03-08T10:45:55.998Z,100241.51
2019-03-08T10:48:46.009Z,100240.11
2019-03-08T10:51:28.574Z,100240.02
2019-03-08T10:54:13.361Z,100243.94
2019-03-08T10:56:58.771Z,100250.84
2019-03-08T10:59:31.392Z,100256.08
2019-03-08T11:02:18.471Z,100269.89
2019-03-08T11:04:57.879Z,100268.42
2019-03-08T11:07:44.894Z,100263.64
2019-03-08T11:10:35.142Z,100279.23
2019-03-08T11:13:15.590Z,100284.11
2019-03-08T11:16:09.435Z,100289.03
2019-03-08T11:19:08.650Z,100282.45
2019-03-08T11:21:53.484Z,100285.20
2019-03-08T11:24:39.673Z,100283.92
2019-03-08T11:27:29.987Z,100285.81
2019-03-08T11:30:19.585Z,100297.16
2019-03-08T11:33:11.127Z,100295.83
2019-03-08T11:35:47.086Z,100302.43
2019-03-08T11:38:27.136Z,100303.59
2019-03-08T11:41:17.678Z,100300.67
2019-03-08T11:44:04.237Z,100304.98
2019-03-08T11:46:58.046Z,100304.20
2019-03-08T11:49:44.561Z,100299.77
2019-03-08T11:52:34.346Z,100309.86
2019-03-08T11:55:20.510Z,100305.41
2019-03-08T11:58:09.653Z,100316.33
2019-03-08T12:00:57.559Z,100314.05
2019-03-08T12:03:43.372Z,100322.03
2019-03-08T12:06:20.709Z,100319.98
2019-03-08T12:08:59.051Z,100318.42
2019-03-08T12:11:46.245Z,100326.81
2019-03-08T12:14:32.365Z,100329.69
2019-03-08T12:17:23.154Z,100326.50
2019-03-08T12:20:13.968Z,100336.67
2019-03-08T12:22:51.762Z,100333.36
2019-03-08T12:25:32.398Z,100338.52
2019-03-08T12:28:18.047Z,100342.19
2019-03-08T12:31:00.044Z,100339.95
2019-03-08T12:33:47.230Z,100341.94
2019-03-08T12:36:26.203Z,100341.09
2019-03-08T12:39:12.543Z,100340.30
2019-03-08T12:42:05.971Z,100345.17
2019-03-08T12:44:50.022Z,100352.94
2019-03-08T12:47:36.004Z,100351.55
2019-03-08T12:50:24.397Z,100342.42
2019-03-08T12:53:22.060Z,100350.55
2019-03-08T12:56:04.868Z,100351.70
2019-03-08T12:58:54.865Z,100351.86
2019-03-08T13:01:51.684Z,100348.72
2019-03-08T13:04:39.936Z,100348.80
2019-03-08T13:07:45.353Z,100348.45
2019-03-08T13:10:13.231Z,100345.57
2019-03-08T13:12:41.447Z,100345.80
2019-03-08T13:15:11.620Z,100354.88
2019-03-08T13:17:39.549Z,100364.00
2019-03-08T13:20:13.963Z,100359.96
2019-03-08T13:22:42.090Z,100364.12
2019-03-08T13:25:10.694Z,100363.56
2019-03-08T13:27:38.691Z,100364.07
2019-03-08T13:30:14.687Z,100362.09
2019-03-08T13:32:43.198Z,100375.89
2019-03-08T13:35:12.126Z,100373.13
2019-03-08T13:37:39.541Z,100365.75
2019-03-08T13:40:08.208Z,100377.77
2019-03-08T13:42:35.600Z,100371.76
2019-03-08T13:45:06.655Z,100364.84
2019-03-08T13:47:34.270Z,100363.45
2019-03-08T13:50:01.870Z,100366.66
2019-03-08T13:52:29.382Z,100372.44
2019-03-08T13:54:57.146Z,100372.27
2019-03-08T13:57:24.700Z,100374.17
2019-03-08T13:59:53.136Z,100369.99
2019-03-08T14:02:20.799Z,100368.25
2019-03-08T14:04:48.228Z,100376.31
2019-03-08T14:07:15.689Z,100391.72
2019-03-08T14:09:43.085Z,100387.81
2019-03-08T14:12:11.809Z,100396.31
2019-03-08T14:14:40.052Z,100382.16
2019-03-08T14:17:08.019Z,100400.67
2019-03-08T14:19:36.948Z,100387.09
2019-03-08T14:22:05.048Z,100392.02
2019-03-08T14:24:33.016Z,100393.13
2019-03-08T14:27:01.506Z,100389.06
2019-03-08T14:29:29.451Z,100388.80
2019-03-08T14:32:08.916Z,100395.84
2019-03-08T14:34:36.690Z,100392.48
2019-03-08T14:37:04.219Z,100388.63
2019-03-08T14:39:32.598Z,100379.94
2019-03-08T14:42:41.508Z,100391.93
2019-03-08T14:45:22.933Z,100396.59
2019-03-08T14:47:52.832Z,100392.53
2019-03-08T14:50:20.361Z,100391.80
2019-03-08T14:52:47.912Z,100397.70
2019-03-08T14:55:18.995Z,100401.82
2019-03-08T14:57:46.772Z,100402.19
2019-03-08T15:00:25.218Z,100400.70
2019-03-08T15:02:54.501Z,100387.52
2019-03-08T15:05:23.002Z,100390.48
2019-03-08T15:07:50.500Z,100391.18
2019-03-08T15:10:19.398Z,100391.85
2019-03-08T15:12:49.188Z,100390.31
2019-03-08T15:15:17.810Z,100389.22
2019-03-08T15:17:45.300Z,100400.98
2019-03-08T15:20:15.618Z,100397.03
2019-03-08T15:22:43.776Z,100400.80
2019-03-08T15:25:12.675Z,100402.62
2019-03-08T15:27:41.429Z,100401.77
2019-03-08T15:30:12.312Z,100399.59
2019-03-08T15:32:41.194Z,100404.80
2019-03-08T15:35:09.746Z,100397.97
2019-03-08T15:37:44.375Z,100401.69
2019-03-08T15:40:13.002Z,100405.25
2019-03-08T15:42:41.698Z,100404.14
2019-03-08T15:45:13.434Z,100404.17
2019-03-08T15:47:41.781Z,100405.16
2019-03-08T15:50:13.516Z,100403.78
2019-03-08T15:52:41.026Z,100409.67
2019-03-08T15:55:09.312Z,100401.46
2019-03-08T15:57:37.479Z,100412.91
2019-03-08T16:00:12.729Z,100420.45
2019-03-08T16:02:40.495Z,100419.45
2019-03-08T16:05:09.601Z,100421.22
2019-03-08T16:07:36.896Z,100423.16
2019-03-08T16:10:05.435Z,100426.34
2019-03-08T16:12:32.999Z,100423.02
2019-03-08T16:15:01.368Z,100426.59
2019-03-08T16:17:28.651Z,100421.47
2019-03-08T16:19:58.883Z,100424.41
2019-03-08T16:22:28.607Z,100434.52
2019-03-08T16:24:55.560Z,100425.40
2019-03-08T16:27:23.408Z,100418.11
2019-03-08T16:29:50.887Z,100423.95
2019-03-08T16:32:30.318Z,100429.95
2019-03-08T16:34:58.291Z,100427.59
2019-03-08T16:37:30.947Z,100430.05
2019-03-08T16:40:22.805Z,100442.14
2019-03-08T16:42:56.626Z,100441.77
2019-03-08T16:45:50.685Z,100454.77
2019-03-08T16:48:27.919Z,100454.02
2019-03-08T16:51:34.549Z,100455.09
2019-03-08T16:54:21.753Z,100439.19
2019-03-08T16:57:23.977Z,100459.02
2019-03-08T17:00:05.833Z,100457.03
2019-03-08T17:02:48.973Z,100469.86
2019-03-08T17:05:35.301Z,100459.60
2019-03-08T17:08:18.833Z,100466.88
2019-03-08T17:10:53.132Z,100479.38
2019-03-08T17:13:33.339Z,100485.02
2019-03-08T17:16:28.821Z,100482.87
2019-03-08T17:19:12.403Z,100478.97
2019-03-08T17:22:05.855Z,100484.47
2019-03-08T17:24:56.641Z,100483.55
2019-03-08T17:27:36.543Z,100485.66
2019-03-08T17:30:25.117Z,100499.86
2019-03-08T17:33:18.221Z,100508.82
2019-03-08T17:36:11.019Z,100502.36
2019-03-08T17:38:50.147Z,100513.40
2019-03-08T17:41:43.035Z,100511.62
2019-03-08T17:44:23.171Z,100507.38
2019-03-08T17:47:07.903Z,100510.73
2019-03-08T17:49:58.048Z,100509.13
2019-03-08T17:52:37.171Z,100515.95
2019-03-08T17:55:23.593Z,100519.28
2019-03-08T17:58:09.471Z,100521.63
2019-03-08T18:00:50.929Z,100521.49
2019-03-08T18:03:26.765Z,100519.14
2019-03-08T18:06:04.243Z,100522.28
2019-03-08T18:09:00.300Z,100521.66
2019-03-08T18:11:47.698Z,100520.66
2019-03-08T18:14:44.099Z,100528.25
2019-03-08T18:17:32.081Z,100522.55
2019-03-08T18:20:13.845Z,100519.06
2019-03-08T18:22:49.262Z,100524.22
2019-03-08T18:25:23.728Z,100521.48
2019-03-08T18:28:13.660Z,100513.54
2019-03-08T18:31:03.705Z,100518.56
2019-03-08T18:33:45.215Z,100512.72
2019-03-08T18:36:32.224Z,100515.74
2019-03-08T18:39:35.305Z,100521.72
2019-03-08T18:42:23.799Z,100522.86
2019-03-08T18:44:57.524Z,100517.64
2019-03-08T18:47:47.879Z,100528.55
2019-03-08T18:50:37.764Z,100530.88
2019-03-08T18:53:44.095Z,100517.94
2019-03-08T18:56:35.505Z,100531.53
2019-03-08T18:59:12.668Z,100525.26
2019-03-08T19:01:59.904Z,100524.36
2019-03-08T19:04:42.252Z,100539.59
2019-03-08T19:07:38.298Z,100533.73
2019-03-08T19:10:13.224Z,100537.53
2019-03-08T19:13:06.432Z,100539.35
2019-03-08T19:15:52.602Z,100549.66
2019-03-08T19:18:39.375Z,100556.02
2019-03-08T19:21:29.626Z,100556.25
2019-03-08T19:24:10.816Z,100561.63
2019-03-08T19:27:01.463Z,100556.31
2019-03-08T19:29:46.591Z,100555.55
2019-03-08T19:32:33.786Z,100556.91
2019-03-08T19:35:24.489Z,100558.67
2019-03-08T19:38:16.163Z,100552.82
2019-03-08T19:40:55.562Z,100558.20
2019-03-08T19:43:29.252Z,100561.93
2019-03-08T19:46:04.298Z,100552.58
2019-03-08T19:48:50.343Z,100555.11
2019-03-08T19:51:36.263Z,100551.75
2019-03-08T19:54:19.271Z,100555.41
2019-03-08T19:57:13.074Z,100561.47
2019-03-08T20:00:06.285Z,100566.02
2019-03-08T20:02:43.264Z,100559.63
2019-03-08T20:05:39.592Z,100560.23
2019-03-08T20:08:44.788Z,100551.52
2019-03-08T20:11:22.112Z,100557.56
2019-03-08T20:14:24.827Z,100558.50
2019-03-08T20:17:06.586Z,100552.45
2019-03-08T20:19:46.425Z,100555.37
2019-03-08T20:22:43.384Z,100560.77
2019-03-08T20:25:20.131Z,100562.06
2019-03-08T20:28:09.714Z,100565.69
2019-03-08T20:30:59.552Z,100563.65
2019-03-08T20:33:37.900Z,100556.91
2019-03-08T20:36:23.901Z,100553.05
2019-03-08T20:39:15.940Z,100545.63
2019-03-08T20:42:12.754Z,100550.75
2019-03-08T20:44:48.702Z,100548.19
2019-03-08T20:47:19.929Z,100535.98
2019-03-08T20:49:47.577Z,100538.28
2019-03-08T20:52:15.475Z,100532.79
2019-03-08T20:54:43.632Z,100526.73
2019-03-08T20:57:11.172Z,100526.46
2019-03-08T20:59:39.019Z,100524.94
2019-03-08T21:02:06.838Z,100521.72
2019-03-08T21:04:34.564Z,100523.03
2019-03-08T21:07:03.777Z,100522.13
2019-03-08T21:09:31.373Z,100529.06
2019-03-08T21:11:59.196Z,100528.41
2019-03-08T21:14:26.640Z,100534.22
2019-03-08T21:16:54.583Z,100524.08
2019-03-08T21:19:22.576Z,100522.91
2019-03-08T21:21:50.955Z,100519.63
2019-03-08T21:24:18.279Z,100516.61
2019-03-08T21:26:45.663Z,100509.20
2019-03-08T21:29:13.230Z,100517.48
2019-03-08T21:31:40.513Z,100510.38
2019-03-08T21:34:07.908Z,100505.59
2019-03-08T21:40:51.368Z,100506.95
2019-03-08T21:43:18.980Z,100509.67
2019-03-08T21:45:46.367Z,100505.21
2019-03-08T21:48:14.148Z,100499.19
2019-03-08T21:50:41.515Z,100504.80
2019-03-08T21:53:09.077Z,100495.22
2019-03-08T21:55:36.599Z,100498.58
2019-03-08T21:58:04.074Z,100493.03
2019-03-08T22:00:31.629Z,100483.37
2019-03-08T22:02:59.205Z,100483.37
2019-03-08T22:05:29.973Z,100480.57
2019-03-08T22:07:57.615Z,100473.45
2019-03-08T22:10:41.502Z,100467.72
2019-03-08T22:13:08.794Z,100461.86
2019-03-08T22:15:36.392Z,100461.44
2019-03-08T22:18:03.982Z,100463.38
2019-03-08T22:20:31.364Z,100462.92
2019-03-08T22:22:59.199Z,100459.89
2019-03-08T22:25:27.671Z,100459.55
2019-03-08T22:27:55.082Z,100457.55
2019-03-08T22:30:22.581Z,100456.06
2019-03-08T22:32:49.856Z,100451.63
2019-03-08T22:35:17.991Z,100443.94
2019-03-08T22:37:45.746Z,100441.44
2019-03-08T22:40:14.207Z,100431.79
2019-03-08T22:42:42.181Z,100436.94
2019-03-08T22:45:10.442Z,100436.12
2019-03-08T22:47:37.853Z,100438.01
2019-03-08T22:50:06.031Z,100428.38
2019-03-08T22:52:34.707Z,100422.27
2019-03-08T22:55:02.564Z,100418.02
2019-03-08T22:57:30.542Z,100417.95
2019-03-08T22:59:58.311Z,100422.03
2019-03-08T23:02:26.112Z,100409.72
2019-03-08T23:04:53.377Z,100405.28
2019-03-08T23:07:21.429Z,100406.83
2019-03-08T23:09:49.304Z,100395.27
2019-03-08T23:12:16.701Z,100388.17
2019-03-08T23:14:44.677Z,100389.54
2019-03-08T23:17:12.396Z,100383.06
2019-03-08T23:19:40.278Z,100376.98
2019-03-08T23:22:07.794Z,100373.96
2019-03-08T23:24:35.603Z,100372.17
2019-03-08T23:27:28.758Z,100365.44
2019-03-08T23:29:59.342Z,100363.61
2019-03-08T23:32:33.093Z,100368.05
2019-03-08T23:35:00.388Z,100362.60
2019-03-08T23:37:28.324Z,100362.42
2019-03-08T23:39:56.256Z,100359.41
2019-03-08T23:42:24.866Z,100355.17
2019-03-08T23:44:52.485Z,100360.39
2019-03-08T23:47:19.908Z,100356.01
2019-03-08T23:49:47.191Z,100359.91
2019-03-08T23:52:15.159Z,100364.17
2019-03-08T23:54:42.579Z,100365.36
2019-03-08T23:57:11.158Z,100362.94
2019-03-08T23:59:38.317Z,100365.89
